sensor_id;sensor_type;location;lat;lon;timestamp;temperature;humidity
38237;DHT22;50101;49.438;11.098;2022-09-29T00:00:14;18.40;63.60
38237;DHT22;50101;49.438;11.098;2022-09-29T00:02:41;18.40;63.60
38237;DHT22;50101;49.438;11.098;2022-09-29T00:05:08;18.40;62.90
38237;DHT22;50101;49.438;11.098;2022-09-29T00:07:35;18.40;62.90
38237;DHT22;50101;49.438;11.098;2022-09-29T00:10:02;18.40;63.60
38237;DHT22;50101;49.438;11.098;2022-09-29T00:12:30;18.40;63.50
38237;DHT22;50101;49.438;11.098;2022-09-29T00:14:56;18.40;63.50
38237;DHT22;50101;49.438;11.098;2022-09-29T00:17:23;18.40;63.50
38237;DHT22;50101;49.438;11.098;2022-09-29T00:19:49;18.40;63.50
38237;DHT22;50101;49.438;11.098;2022-09-29T00:22:16;18.40;63.60
38237;DHT22;50101;49.438;11.098;2022-09-29T00:24:43;18.40;63.50
38237;DHT22;50101;49.438;11.098;2022-09-29T00:27:09;18.40;63.60
38237;DHT22;50101;49.438;11.098;2022-09-29T00:29:36;18.40;63.50
38237;DHT22;50101;49.438;11.098;2022-09-29T00:32:02;18.40;63.50
38237;DHT22;50101;49.438;11.098;2022-09-29T00:34:29;18.40;63.50
38237;DHT22;50101;49.438;11.098;2022-09-29T00:36:56;18.40;63.50
38237;DHT22;50101;49.438;11.098;2022-09-29T00:39:22;18.40;63.60
38237;DHT22;50101;49.438;11.098;2022-09-29T00:41:49;18.40;63.50
38237;DHT22;50101;49.438;11.098;2022-09-29T00:49:33;18.40;63.60
38237;DHT22;50101;49.438;11.098;2022-09-29T00:52:13;18.40;63.50
38237;DHT22;50101;49.438;11.098;2022-09-29T00:55:01;18.40;63.50
38237;DHT22;50101;49.438;11.098;2022-09-29T00:57:33;18.40;63.50
38237;DHT22;50101;49.438;11.098;2022-09-29T01:00:11;18.40;63.40
38237;DHT22;50101;49.438;11.098;2022-09-29T01:02:48;18.40;63.40
38237;DHT22;50101;49.438;11.098;2022-09-29T01:05:19;18.40;62.90
38237;DHT22;50101;49.438;11.098;2022-09-29T01:07:48;18.40;63.50
38237;DHT22;50101;49.438;11.098;2022-09-29T01:10:16;18.30;63.30
38237;DHT22;50101;49.438;11.098;2022-09-29T01:12:46;18.40;63.50
38237;DHT22;50101;49.438;11.098;2022-09-29T01:15:16;18.30;63.30
38237;DHT22;50101;49.438;11.098;2022-09-29T01:17:43;18.30;63.40
38237;DHT22;50101;49.438;11.098;2022-09-29T01:20:13;18.40;63.40
38237;DHT22;50101;49.438;11.098;2022-09-29T01:23:23;18.30;63.30
38237;DHT22;50101;49.438;11.098;2022-09-29T01:34:54;18.30;63.30
38237;DHT22;50101;49.438;11.098;2022-09-29T01:37:31;18.30;63.30
38237;DHT22;50101;49.438;11.098;2022-09-29T01:40:10;18.30;63.30
38237;DHT22;50101;49.438;11.098;2022-09-29T01:45:25;18.30;63.30
38237;DHT22;50101;49.438;11.098;2022-09-29T01:48:02;18.30;63.30
38237;DHT22;50101;49.438;11.098;2022-09-29T01:50:38;18.30;63.30
38237;DHT22;50101;49.438;11.098;2022-09-29T01:53:11;18.30;63.30
38237;DHT22;50101;49.438;11.098;2022-09-29T01:55:53;18.30;63.30
38237;DHT22;50101;49.438;11.098;2022-09-29T01:58:36;18.30;63.30
38237;DHT22;50101;49.438;11.098;2022-09-29T02:01:09;18.30;63.30
38237;DHT22;50101;49.438;11.098;2022-09-29T02:03:40;18.30;63.30
38237;DHT22;50101;49.438;11.098;2022-09-29T02:06:22;18.30;63.30
38237;DHT22;50101;49.438;11.098;2022-09-29T02:08:53;18.30;63.20
38237;DHT22;50101;49.438;11.098;2022-09-29T02:11:21;18.30;63.20
38237;DHT22;50101;49.438;11.098;2022-09-29T02:13:50;18.30;63.20
38237;DHT22;50101;49.438;11.098;2022-09-29T02:16:20;18.30;63.30
38237;DHT22;50101;49.438;11.098;2022-09-29T02:18:53;18.30;63.20
38237;DHT22;50101;49.438;11.098;2022-09-29T02:21:25;18.30;63.20
38237;DHT22;50101;49.438;11.098;2022-09-29T02:23:53;18.30;63.20
38237;DHT22;50101;49.438;11.098;2022-09-29T02:26:20;18.30;63.20
38237;DHT22;50101;49.438;11.098;2022-09-29T02:28:49;18.30;63.10
38237;DHT22;50101;49.438;11.098;2022-09-29T02:31:18;18.30;63.10
38237;DHT22;50101;49.438;11.098;2022-09-29T02:33:51;18.30;63.10
38237;DHT22;50101;49.438;11.098;2022-09-29T02:36:33;18.30;62.60
38237;DHT22;50101;49.438;11.098;2022-09-29T02:47:26;18.30;63.20
38237;DHT22;50101;49.438;11.098;2022-09-29T02:55:36;18.30;62.60
38237;DHT22;50101;49.438;11.098;2022-09-29T02:58:14;18.30;63.10
38237;DHT22;50101;49.438;11.098;2022-09-29T03:00:43;18.30;63.20
38237;DHT22;50101;49.438;11.098;2022-09-29T03:03:10;18.20;63.00
38237;DHT22;50101;49.438;11.098;2022-09-29T03:05:37;18.30;63.20
38237;DHT22;50101;49.438;11.098;2022-09-29T03:08:04;18.20;63.10
38237;DHT22;50101;49.438;11.098;2022-09-29T03:10:31;18.20;63.00
38237;DHT22;50101;49.438;11.098;2022-09-29T03:12:57;18.20;63.00
38237;DHT22;50101;49.438;11.098;2022-09-29T03:15:24;18.20;62.90
38237;DHT22;50101;49.438;11.098;2022-09-29T03:17:54;18.20;62.90
38237;DHT22;50101;49.438;11.098;2022-09-29T03:20:23;18.20;62.90
38237;DHT22;50101;49.438;11.098;2022-09-29T03:22:50;18.20;62.90
38237;DHT22;50101;49.438;11.098;2022-09-29T03:25:17;18.20;62.90
38237;DHT22;50101;49.438;11.098;2022-09-29T03:27:44;18.20;62.90
38237;DHT22;50101;49.438;11.098;2022-09-29T03:30:12;18.20;62.90
38237;DHT22;50101;49.438;11.098;2022-09-29T03:32:38;18.20;62.90
38237;DHT22;50101;49.438;11.098;2022-09-29T03:35:06;18.20;62.30
38237;DHT22;50101;49.438;11.098;2022-09-29T03:37:32;18.20;62.90
38237;DHT22;50101;49.438;11.098;2022-09-29T03:39:59;18.20;62.90
38237;DHT22;50101;49.438;11.098;2022-09-29T03:42:26;18.20;62.90
38237;DHT22;50101;49.438;11.098;2022-09-29T03:44:53;18.20;62.90
38237;DHT22;50101;49.438;11.098;2022-09-29T03:47:20;18.20;62.90
38237;DHT22;50101;49.438;11.098;2022-09-29T03:49:47;18.20;62.90
38237;DHT22;50101;49.438;11.098;2022-09-29T03:52:14;18.20;62.90
38237;DHT22;50101;49.438;11.098;2022-09-29T03:54:40;18.30;62.40
38237;DHT22;50101;49.438;11.098;2022-09-29T03:57:07;18.20;62.90
38237;DHT22;50101;49.438;11.098;2022-09-29T03:59:34;18.20;62.90
38237;DHT22;50101;49.438;11.098;2022-09-29T04:02:00;18.20;62.90
38237;DHT22;50101;49.438;11.098;2022-09-29T04:04:28;18.20;62.80
38237;DHT22;50101;49.438;11.098;2022-09-29T04:06:54;18.20;62.90
38237;DHT22;50101;49.438;11.098;2022-09-29T04:09:21;18.20;62.90
38237;DHT22;50101;49.438;11.098;2022-09-29T04:11:51;18.20;62.30
38237;DHT22;50101;49.438;11.098;2022-09-29T04:14:18;18.10;62.80
38237;DHT22;50101;49.438;11.098;2022-09-29T04:16:44;18.20;62.90
38237;DHT22;50101;49.438;11.098;2022-09-29T04:19:11;18.20;62.80
38237;DHT22;50101;49.438;11.098;2022-09-29T04:21:38;18.20;63.60
38237;DHT22;50101;49.438;11.098;2022-09-29T04:24:04;18.20;62.80
38237;DHT22;50101;49.438;11.098;2022-09-29T04:26:31;18.20;62.80
38237;DHT22;50101;49.438;11.098;2022-09-29T04:28:58;18.20;62.90
38237;DHT22;50101;49.438;11.098;2022-09-29T04:31:24;18.20;62.80
38237;DHT22;50101;49.438;11.098;2022-09-29T04:33:51;18.20;62.90
38237;DHT22;50101;49.438;11.098;2022-09-29T04:36:18;18.20;62.90
38237;DHT22;50101;49.438;11.098;2022-09-29T04:38:44;18.20;62.80
38237;DHT22;50101;49.438;11.098;2022-09-29T04:41:11;18.20;62.90
38237;DHT22;50101;49.438;11.098;2022-09-29T04:43:38;18.20;62.90
38237;DHT22;50101;49.438;11.098;2022-09-29T04:46:06;18.20;62.90
38237;DHT22;50101;49.438;11.098;2022-09-29T04:48:34;18.20;62.90
38237;DHT22;50101;49.438;11.098;2022-09-29T04:51:02;18.20;62.90
38237;DHT22;50101;49.438;11.098;2022-09-29T04:53:29;18.20;62.90
38237;DHT22;50101;49.438;11.098;2022-09-29T04:55:55;18.20;62.90
38237;DHT22;50101;49.438;11.098;2022-09-29T04:58:22;18.20;62.90
38237;DHT22;50101;49.438;11.098;2022-09-29T05:00:48;18.20;63.00
38237;DHT22;50101;49.438;11.098;2022-09-29T05:03:15;18.20;62.90
38237;DHT22;50101;49.438;11.098;2022-09-29T05:05:42;18.20;62.30
38237;DHT22;50101;49.438;11.098;2022-09-29T05:08:08;18.10;62.80
38237;DHT22;50101;49.438;11.098;2022-09-29T05:10:35;18.20;62.90
38237;DHT22;50101;49.438;11.098;2022-09-29T05:13:02;18.20;62.90
38237;DHT22;50101;49.438;11.098;2022-09-29T05:15:28;18.10;62.30
38237;DHT22;50101;49.438;11.098;2022-09-29T05:17:55;18.20;63.00
38237;DHT22;50101;49.438;11.098;2022-09-29T05:20:22;18.20;63.00
38237;DHT22;50101;49.438;11.098;2022-09-29T05:22:48;18.20;63.10
38237;DHT22;50101;49.438;11.098;2022-09-29T05:25:15;18.20;62.90
38237;DHT22;50101;49.438;11.098;2022-09-29T05:27:42;18.20;63.30
38237;DHT22;50101;49.438;11.098;2022-09-29T05:30:09;18.30;63.30
38237;DHT22;50101;49.438;11.098;2022-09-29T05:32:36;18.30;63.30
38237;DHT22;50101;49.438;11.098;2022-09-29T05:35:02;18.30;63.30
38237;DHT22;50101;49.438;11.098;2022-09-29T05:37:29;18.30;62.90
38237;DHT22;50101;49.438;11.098;2022-09-29T05:39:56;18.30;62.80
38237;DHT22;50101;49.438;11.098;2022-09-29T05:42:22;18.30;63.00
38237;DHT22;50101;49.438;11.098;2022-09-29T05:44:50;18.30;63.10
38237;DHT22;50101;49.438;11.098;2022-09-29T05:47:17;18.30;63.10
38237;DHT22;50101;49.438;11.098;2022-09-29T05:49:44;18.40;62.80
38237;DHT22;50101;49.438;11.098;2022-09-29T05:52:11;18.40;62.80
38237;DHT22;50101;49.438;11.098;2022-09-29T05:54:37;18.30;62.80
38237;DHT22;50101;49.438;11.098;2022-09-29T05:57:04;18.30;63.40
38237;DHT22;50101;49.438;11.098;2022-09-29T05:59:31;18.30;62.90
38237;DHT22;50101;49.438;11.098;2022-09-29T06:01:57;18.30;62.70
38237;DHT22;50101;49.438;11.098;2022-09-29T06:04:24;18.40;62.70
38237;DHT22;50101;49.438;11.098;2022-09-29T06:06:51;18.40;62.80
38237;DHT22;50101;49.438;11.098;2022-09-29T06:09:18;18.40;62.60
38237;DHT22;50101;49.438;11.098;2022-09-29T06:11:45;18.40;62.70
38237;DHT22;50101;49.438;11.098;2022-09-29T06:14:12;18.40;62.70
38237;DHT22;50101;49.438;11.098;2022-09-29T06:16:38;18.40;62.90
38237;DHT22;50101;49.438;11.098;2022-09-29T06:19:05;18.40;62.80
38237;DHT22;50101;49.438;11.098;2022-09-29T06:21:32;18.40;62.70
38237;DHT22;50101;49.438;11.098;2022-09-29T06:24:00;18.40;62.70
38237;DHT22;50101;49.438;11.098;2022-09-29T06:26:28;18.40;62.50
38237;DHT22;50101;49.438;11.098;2022-09-29T06:28:55;18.40;62.90
38237;DHT22;50101;49.438;11.098;2022-09-29T06:31:25;18.40;62.80
38237;DHT22;50101;49.438;11.098;2022-09-29T06:33:54;18.30;62.80
38237;DHT22;50101;49.438;11.098;2022-09-29T06:36:25;18.30;63.00
38237;DHT22;50101;49.438;11.098;2022-09-29T06:39:12;18.30;63.10
38237;DHT22;50101;49.438;11.098;2022-09-29T06:41:40;18.30;63.00
38237;DHT22;50101;49.438;11.098;2022-09-29T06:44:07;18.40;64.60
38237;DHT22;50101;49.438;11.098;2022-09-29T06:46:33;18.40;63.10
38237;DHT22;50101;49.438;11.098;2022-09-29T06:49:01;18.30;65.20
38237;DHT22;50101;49.438;11.098;2022-09-29T06:51:27;18.20;63.80
38237;DHT22;50101;49.438;11.098;2022-09-29T06:54:18;18.30;67.70
38237;DHT22;50101;49.438;11.098;2022-09-29T06:56:46;18.50;66.80
38237;DHT22;50101;49.438;11.098;2022-09-29T06:59:14;18.30;64.30
38237;DHT22;50101;49.438;11.098;2022-09-29T07:01:40;18.30;64.40
38237;DHT22;50101;49.438;11.098;2022-09-29T07:04:07;18.50;62.40
38237;DHT22;50101;49.438;11.098;2022-09-29T07:06:34;18.60;66.30
38237;DHT22;50101;49.438;11.098;2022-09-29T07:09:01;18.40;63.40
38237;DHT22;50101;49.438;11.098;2022-09-29T07:11:27;18.40;63.90
38237;DHT22;50101;49.438;11.098;2022-09-29T07:13:54;18.50;62.60
38237;DHT22;50101;49.438;11.098;2022-09-29T07:16:21;18.60;63.50
38237;DHT22;50101;49.438;11.098;2022-09-29T07:18:50;18.70;64.50
38237;DHT22;50101;49.438;11.098;2022-09-29T07:21:17;18.50;62.40
38237;DHT22;50101;49.438;11.098;2022-09-29T07:23:45;18.60;63.10
38237;DHT22;50101;49.438;11.098;2022-09-29T07:26:13;18.40;63.50
38237;DHT22;50101;49.438;11.098;2022-09-29T07:28:42;18.50;63.00
38237;DHT22;50101;49.438;11.098;2022-09-29T07:31:12;18.40;63.10
38237;DHT22;50101;49.438;11.098;2022-09-29T07:33:42;18.50;64.10
38237;DHT22;50101;49.438;11.098;2022-09-29T07:36:09;18.60;68.10
38237;DHT22;50101;49.438;11.098;2022-09-29T07:38:36;18.50;63.00
38237;DHT22;50101;49.438;11.098;2022-09-29T07:41:07;18.40;65.90
38237;DHT22;50101;49.438;11.098;2022-09-29T07:43:36;18.60;66.80
38237;DHT22;50101;49.438;11.098;2022-09-29T07:46:06;18.90;65.10
38237;DHT22;50101;49.438;11.098;2022-09-29T07:48:34;18.50;61.40
38237;DHT22;50101;49.438;11.098;2022-09-29T07:53:29;18.30;64.90
38237;DHT22;50101;49.438;11.098;2022-09-29T07:56:05;18.50;63.70
38237;DHT22;50101;49.438;11.098;2022-09-29T07:58:33;18.70;63.60
38237;DHT22;50101;49.438;11.098;2022-09-29T08:01:01;18.70;62.40
38237;DHT22;50101;49.438;11.098;2022-09-29T08:03:31;18.50;64.40
38237;DHT22;50101;49.438;11.098;2022-09-29T08:05:58;18.60;64.10
38237;DHT22;50101;49.438;11.098;2022-09-29T08:08:25;18.50;61.30
38237;DHT22;50101;49.438;11.098;2022-09-29T08:11:03;18.30;64.10
38237;DHT22;50101;49.438;11.098;2022-09-29T08:13:30;18.60;64.30
38237;DHT22;50101;49.438;11.098;2022-09-29T08:15:59;18.50;63.00
38237;DHT22;50101;49.438;11.098;2022-09-29T08:18:30;18.40;64.10
38237;DHT22;50101;49.438;11.098;2022-09-29T08:20:57;18.50;62.40
38237;DHT22;50101;49.438;11.098;2022-09-29T08:23:30;18.40;62.70
38237;DHT22;50101;49.438;11.098;2022-09-29T08:26:05;18.60;62.50
38237;DHT22;50101;49.438;11.098;2022-09-29T08:28:34;18.90;63.70
38237;DHT22;50101;49.438;11.098;2022-09-29T08:31:07;18.50;63.60
38237;DHT22;50101;49.438;11.098;2022-09-29T08:33:35;18.50;63.90
38237;DHT22;50101;49.438;11.098;2022-09-29T08:36:02;18.50;63.50
38237;DHT22;50101;49.438;11.098;2022-09-29T08:38:31;18.40;62.50
38237;DHT22;50101;49.438;11.098;2022-09-29T08:41:03;18.60;63.10
38237;DHT22;50101;49.438;11.098;2022-09-29T08:43:36;18.60;61.60
38237;DHT22;50101;49.438;11.098;2022-09-29T08:46:09;18.50;64.40
38237;DHT22;50101;49.438;11.098;2022-09-29T08:48:43;18.70;62.50
38237;DHT22;50101;49.438;11.098;2022-09-29T08:51:41;18.60;64.30
38237;DHT22;50101;49.438;11.098;2022-09-29T08:54:29;18.60;61.50
38237;DHT22;50101;49.438;11.098;2022-09-29T08:57:06;18.80;66.20
38237;DHT22;50101;49.438;11.098;2022-09-29T08:59:36;18.80;66.10
38237;DHT22;50101;49.438;11.098;2022-09-29T09:02:17;18.80;66.10
38237;DHT22;50101;49.438;11.098;2022-09-29T09:05:16;18.80;66.70
38237;DHT22;50101;49.438;11.098;2022-09-29T09:10:44;18.60;65.10
38237;DHT22;50101;49.438;11.098;2022-09-29T09:16:04;18.60;61.50
38237;DHT22;50101;49.438;11.098;2022-09-29T09:21:11;18.60;62.30
38237;DHT22;50101;49.438;11.098;2022-09-29T09:23:49;18.50;62.20
38237;DHT22;50101;49.438;11.098;2022-09-29T09:26:37;18.60;62.40
38237;DHT22;50101;49.438;11.098;2022-09-29T09:29:18;18.60;62.40
38237;DHT22;50101;49.438;11.098;2022-09-29T09:32:09;18.50;63.90
38237;DHT22;50101;49.438;11.098;2022-09-29T09:37:31;18.60;65.90
38237;DHT22;50101;49.438;11.098;2022-09-29T09:42:37;18.50;66.10
38237;DHT22;50101;49.438;11.098;2022-09-29T09:45:22;18.60;67.00
38237;DHT22;50101;49.438;11.098;2022-09-29T09:48:02;18.70;66.90
38237;DHT22;50101;49.438;11.098;2022-09-29T09:50:32;18.50;66.80
38237;DHT22;50101;49.438;11.098;2022-09-29T09:53:16;18.50;63.70
38237;DHT22;50101;49.438;11.098;2022-09-29T09:55:47;18.70;61.80
38237;DHT22;50101;49.438;11.098;2022-09-29T10:01:01;18.70;62.30
38237;DHT22;50101;49.438;11.098;2022-09-29T10:03:29;18.70;62.50
38237;DHT22;50101;49.438;11.098;2022-09-29T10:05:56;18.60;61.70
38237;DHT22;50101;49.438;11.098;2022-09-29T10:08:32;18.60;62.30
38237;DHT22;50101;49.438;11.098;2022-09-29T10:13:44;18.60;62.30
38237;DHT22;50101;49.438;11.098;2022-09-29T10:16:26;18.70;62.50
38237;DHT22;50101;49.438;11.098;2022-09-29T10:18:54;18.70;62.50
38237;DHT22;50101;49.438;11.098;2022-09-29T10:23:56;18.70;62.40
38237;DHT22;50101;49.438;11.098;2022-09-29T10:26:43;18.60;62.20
38237;DHT22;50101;49.438;11.098;2022-09-29T10:29:27;18.60;62.40
38237;DHT22;50101;49.438;11.098;2022-09-29T10:34:35;18.60;62.40
38237;DHT22;50101;49.438;11.098;2022-09-29T10:37:06;18.50;61.60
38237;DHT22;50101;49.438;11.098;2022-09-29T10:39:45;18.60;62.50
38237;DHT22;50101;49.438;11.098;2022-09-29T10:42:22;18.60;62.40
38237;DHT22;50101;49.438;11.098;2022-09-29T10:45:00;18.60;62.40
38237;DHT22;50101;49.438;11.098;2022-09-29T10:47:27;18.60;62.40
38237;DHT22;50101;49.438;11.098;2022-09-29T10:52:37;18.60;62.60
38237;DHT22;50101;49.438;11.098;2022-09-29T10:55:15;18.60;62.20
38237;DHT22;50101;49.438;11.098;2022-09-29T10:57:44;18.60;62.90
38237;DHT22;50101;49.438;11.098;2022-09-29T11:00:44;18.60;62.80
38237;DHT22;50101;49.438;11.098;2022-09-29T11:03:21;17.40;61.30
38237;DHT22;50101;49.438;11.098;2022-09-29T11:05:58;18.70;62.80
38237;DHT22;50101;49.438;11.098;2022-09-29T11:08:27;18.70;62.80
38237;DHT22;50101;49.438;11.098;2022-09-29T11:13:38;18.70;62.90
38237;DHT22;50101;49.438;11.098;2022-09-29T11:16:36;18.70;63.10
38237;DHT22;50101;49.438;11.098;2022-09-29T11:19:07;18.80;62.90
38237;DHT22;50101;49.438;11.098;2022-09-29T11:30:15;18.70;62.90
38237;DHT22;50101;49.438;11.098;2022-09-29T11:32:59;18.70;63.00
38237;DHT22;50101;49.438;11.098;2022-09-29T11:35:38;18.70;63.00
38237;DHT22;50101;49.438;11.098;2022-09-29T11:44:09;18.70;63.00
38237;DHT22;50101;49.438;11.098;2022-09-29T11:50:41;18.70;63.10
38237;DHT22;50101;49.438;11.098;2022-09-29T12:03:35;18.80;63.60
38237;DHT22;50101;49.438;11.098;2022-09-29T12:09:17;18.90;64.00
38237;DHT22;50101;49.438;11.098;2022-09-29T12:17:28;18.90;64.00
38237;DHT22;50101;49.438;11.098;2022-09-29T12:20:12;18.90;64.10
38237;DHT22;50101;49.438;11.098;2022-09-29T12:22:43;18.90;64.20
38237;DHT22;50101;49.438;11.098;2022-09-29T12:25:24;18.90;64.20
38237;DHT22;50101;49.438;11.098;2022-09-29T12:27:59;18.90;64.20
38237;DHT22;50101;49.438;11.098;2022-09-29T12:30:32;18.90;64.40
38237;DHT22;50101;49.438;11.098;2022-09-29T12:35:38;18.90;64.70
38237;DHT22;50101;49.438;11.098;2022-09-29T12:41:13;19.00;64.90
38237;DHT22;50101;49.438;11.098;2022-09-29T12:46:40;18.90;64.10
38237;DHT22;50101;49.438;11.098;2022-09-29T12:49:24;18.90;64.90
38237;DHT22;50101;49.438;11.098;2022-09-29T12:51:55;19.00;64.50
38237;DHT22;50101;49.438;11.098;2022-09-29T12:54:23;18.90;64.90
38237;DHT22;50101;49.438;11.098;2022-09-29T12:57:03;19.00;65.00
38237;DHT22;50101;49.438;11.098;2022-09-29T12:59:48;19.00;65.10
38237;DHT22;50101;49.438;11.098;2022-09-29T13:10:20;19.00;65.40
38237;DHT22;50101;49.438;11.098;2022-09-29T13:13:27;19.00;65.50
38237;DHT22;50101;49.438;11.098;2022-09-29T13:16:39;19.00;65.50
38237;DHT22;50101;49.438;11.098;2022-09-29T13:19:26;19.00;65.70
38237;DHT22;50101;49.438;11.098;2022-09-29T13:22:35;19.00;65.50
38237;DHT22;50101;49.438;11.098;2022-09-29T13:27:55;19.00;65.70
38237;DHT22;50101;49.438;11.098;2022-09-29T13:30:28;19.00;65.80
38237;DHT22;50101;49.438;11.098;2022-09-29T13:35:28;19.00;66.10
38237;DHT22;50101;49.438;11.098;2022-09-29T13:38:05;19.00;65.90
38237;DHT22;50101;49.438;11.098;2022-09-29T13:40:33;19.00;66.10
38237;DHT22;50101;49.438;11.098;2022-09-29T13:43:01;19.00;66.00
38237;DHT22;50101;49.438;11.098;2022-09-29T13:50:52;19.00;66.20
38237;DHT22;50101;49.438;11.098;2022-09-29T13:53:34;19.00;66.30
38237;DHT22;50101;49.438;11.098;2022-09-29T13:58:33;19.00;66.60
38237;DHT22;50101;49.438;11.098;2022-09-29T14:01:05;19.00;66.60
38237;DHT22;50101;49.438;11.098;2022-09-29T14:03:43;19.00;66.60
38237;DHT22;50101;49.438;11.098;2022-09-29T14:06:17;19.00;66.60
38237;DHT22;50101;49.438;11.098;2022-09-29T14:09:11;19.00;65.50
38237;DHT22;50101;49.438;11.098;2022-09-29T14:11:42;18.90;65.00
38237;DHT22;50101;49.438;11.098;2022-09-29T14:14:17;18.80;64.70
38237;DHT22;50101;49.438;11.098;2022-09-29T14:19:38;18.80;64.90
38237;DHT22;50101;49.438;11.098;2022-09-29T14:27:42;18.90;65.20
38237;DHT22;50101;49.438;11.098;2022-09-29T14:33:11;18.70;64.40
38237;DHT22;50101;49.438;11.098;2022-09-29T14:36:04;18.80;64.90
38237;DHT22;50101;49.438;11.098;2022-09-29T14:38:32;18.80;64.90
38237;DHT22;50101;49.438;11.098;2022-09-29T14:41:01;18.80;64.70
38237;DHT22;50101;49.438;11.098;2022-09-29T14:43:43;18.90;64.70
38237;DHT22;50101;49.438;11.098;2022-09-29T15:00:21;18.70;64.40
38237;DHT22;50101;49.438;11.098;2022-09-29T15:02:54;18.70;64.40
38237;DHT22;50101;49.438;11.098;2022-09-29T15:05:32;18.70;64.30
38237;DHT22;50101;49.438;11.098;2022-09-29T15:08:01;18.70;64.30
38237;DHT22;50101;49.438;11.098;2022-09-29T15:10:30;18.70;64.30
38237;DHT22;50101;49.438;11.098;2022-09-29T15:13:25;18.70;64.30
38237;DHT22;50101;49.438;11.098;2022-09-29T15:16:04;18.60;64.40
38237;DHT22;50101;49.438;11.098;2022-09-29T15:18:46;18.70;64.50
38237;DHT22;50101;49.438;11.098;2022-09-29T15:21:46;18.70;64.40
38237;DHT22;50101;49.438;11.098;2022-09-29T15:26:40;18.70;63.80
38237;DHT22;50101;49.438;11.098;2022-09-29T15:29:12;18.70;64.50
38237;DHT22;50101;49.438;11.098;2022-09-29T15:31:45;18.70;64.40
38237;DHT22;50101;49.438;11.098;2022-09-29T15:34:17;18.70;64.40
38237;DHT22;50101;49.438;11.098;2022-09-29T15:36:54;18.70;64.60
38237;DHT22;50101;49.438;11.098;2022-09-29T15:42:02;18.80;64.90
38237;DHT22;50101;49.438;11.098;2022-09-29T15:44:30;18.90;65.00
38237;DHT22;50101;49.438;11.098;2022-09-29T15:46:59;18.90;64.90
38237;DHT22;50101;49.438;11.098;2022-09-29T15:49:27;18.90;65.00
38237;DHT22;50101;49.438;11.098;2022-09-29T15:54:36;19.00;65.40
38237;DHT22;50101;49.438;11.098;2022-09-29T15:57:06;19.00;65.10
38237;DHT22;50101;49.438;11.098;2022-09-29T15:59:53;19.00;65.20
38237;DHT22;50101;49.438;11.098;2022-09-29T16:02:30;19.00;65.60
38237;DHT22;50101;49.438;11.098;2022-09-29T16:05:05;19.00;65.50
38237;DHT22;50101;49.438;11.098;2022-09-29T16:07:34;19.00;65.70
38237;DHT22;50101;49.438;11.098;2022-09-29T16:10:24;19.00;65.70
38237;DHT22;50101;49.438;11.098;2022-09-29T16:12:58;18.90;65.60
38237;DHT22;50101;49.438;11.098;2022-09-29T16:15:33;18.90;65.40
38237;DHT22;50101;49.438;11.098;2022-09-29T16:18:07;18.90;65.70
38237;DHT22;50101;49.438;11.098;2022-09-29T16:20:35;19.00;65.70
38237;DHT22;50101;49.438;11.098;2022-09-29T16:28:39;19.00;65.60
38237;DHT22;50101;49.438;11.098;2022-09-29T16:31:18;19.00;65.70
38237;DHT22;50101;49.438;11.098;2022-09-29T16:33:51;19.00;65.90
38237;DHT22;50101;49.438;11.098;2022-09-29T16:36:25;19.00;65.10
38237;DHT22;50101;49.438;11.098;2022-09-29T16:38:53;19.00;65.80
38237;DHT22;50101;49.438;11.098;2022-09-29T16:46:57;19.00;66.00
38237;DHT22;50101;49.438;11.098;2022-09-29T16:49:33;19.00;66.10
38237;DHT22;50101;49.438;11.098;2022-09-29T16:54:44;19.00;66.40
38237;DHT22;50101;49.438;11.098;2022-09-29T16:57:25;19.00;66.40
38237;DHT22;50101;49.438;11.098;2022-09-29T16:59:55;19.00;66.20
38237;DHT22;50101;49.438;11.098;2022-09-29T17:02:23;19.00;66.40
38237;DHT22;50101;49.438;11.098;2022-09-29T17:04:51;19.00;66.30
38237;DHT22;50101;49.438;11.098;2022-09-29T17:07:21;19.00;66.40
38237;DHT22;50101;49.438;11.098;2022-09-29T17:09:54;19.00;66.60
38237;DHT22;50101;49.438;11.098;2022-09-29T17:12:22;19.00;66.20
38237;DHT22;50101;49.438;11.098;2022-09-29T17:14:52;19.00;66.60
38237;DHT22;50101;49.438;11.098;2022-09-29T17:17:22;18.90;65.20
38237;DHT22;50101;49.438;11.098;2022-09-29T17:19:50;18.80;65.80
38237;DHT22;50101;49.438;11.098;2022-09-29T17:22:27;18.80;65.40
38237;DHT22;50101;49.438;11.098;2022-09-29T17:24:54;18.80;65.90
38237;DHT22;50101;49.438;11.098;2022-09-29T17:27:21;18.70;65.90
38237;DHT22;50101;49.438;11.098;2022-09-29T17:30:07;18.70;65.80
38237;DHT22;50101;49.438;11.098;2022-09-29T17:32:35;18.70;65.90
38237;DHT22;50101;49.438;11.098;2022-09-29T17:35:02;18.70;66.00
38237;DHT22;50101;49.438;11.098;2022-09-29T17:37:31;18.70;65.30
38237;DHT22;50101;49.438;11.098;2022-09-29T17:39:57;18.70;66.00
38237;DHT22;50101;49.438;11.098;2022-09-29T17:42:24;18.70;66.00
38237;DHT22;50101;49.438;11.098;2022-09-29T17:44:52;18.70;65.90
38237;DHT22;50101;49.438;11.098;2022-09-29T17:47:18;18.70;66.00
38237;DHT22;50101;49.438;11.098;2022-09-29T17:49:55;18.70;65.80
38237;DHT22;50101;49.438;11.098;2022-09-29T17:52:22;18.70;65.90
38237;DHT22;50101;49.438;11.098;2022-09-29T17:54:49;18.70;65.90
38237;DHT22;50101;49.438;11.098;2022-09-29T17:57:19;18.60;65.80
38237;DHT22;50101;49.438;11.098;2022-09-29T17:59:48;18.70;65.90
38237;DHT22;50101;49.438;11.098;2022-09-29T18:02:15;18.70;65.90
38237;DHT22;50101;49.438;11.098;2022-09-29T18:04:42;18.60;65.80
38237;DHT22;50101;49.438;11.098;2022-09-29T18:07:13;18.60;65.70
38237;DHT22;50101;49.438;11.098;2022-09-29T18:09:41;18.60;65.70
38237;DHT22;50101;49.438;11.098;2022-09-29T18:12:08;18.70;65.80
38237;DHT22;50101;49.438;11.098;2022-09-29T18:14:35;18.70;65.80
38237;DHT22;50101;49.438;11.098;2022-09-29T18:17:03;18.70;65.90
38237;DHT22;50101;49.438;11.098;2022-09-29T18:19:31;18.70;65.70
38237;DHT22;50101;49.438;11.098;2022-09-29T18:22:01;18.70;65.90
38237;DHT22;50101;49.438;11.098;2022-09-29T18:24:32;18.70;66.00
38237;DHT22;50101;49.438;11.098;2022-09-29T18:26:59;18.60;65.30
38237;DHT22;50101;49.438;11.098;2022-09-29T18:29:26;18.60;65.90
38237;DHT22;50101;49.438;11.098;2022-09-29T18:31:52;18.60;65.90
38237;DHT22;50101;49.438;11.098;2022-09-29T18:34:19;18.50;65.80
38237;DHT22;50101;49.438;11.098;2022-09-29T18:36:47;18.60;65.90
38237;DHT22;50101;49.438;11.098;2022-09-29T18:39:14;18.50;65.80